EST,Max TemperatureF,Mean TemperatureF,Min TemperatureF,Max Dew PointF,MeanDew PointF,Min DewpointF,Max Humidity, Mean Humidity, Min Humidity, Max Sea Level PressureIn, Mean Sea Level PressureIn, Min Sea Level PressureIn, Max VisibilityMiles, Mean VisibilityMiles, Min VisibilityMiles, Max Wind SpeedMPH, Mean Wind SpeedMPH, Max Gust SpeedMPH,PrecipitationIn, CloudCover, Events, WindDirDegrees
2014-1-1,28,24,19,20,18,14,95,83,71,30.35,30.27,30.12,10,7,2,9,5,9,0.03,8,Snow,56
2014-1-2,21,17,12,18,15,8,92,85,77,30.09,29.94,29.76,10,3,0,20,13,20,0.21,8,Snow,37
2014-1-3,12,11,10,8,4,-1,84,71,58,30.44,30.32,30.10,10,6,1,16,10,16,0.05,6,Snow,302
2014-1-4,33,22,10,14,8,1,73,57,41,30.29,30.17,30.09,10,10,10,21,14,21,0.00,4,,195
2014-1-5,45,38,31,43,25,14,100,72,43,30.11,29.84,29.31,10,9,4,16,7,16,0.20,8,Rain,159
2014-1-6,45,18,-10,34,4,-20,92,74,55,30.23,29.86,29.36,8,4,1,30,21,30,0.09,7,Rain-Snow,272
2014-1-7,4,-3,-11,-4,-13,-20,70,60,50,30.43,30.34,30.21,10,7,2,24,16,24,T,6,Snow,240
2014-1-8,22,12,2,19,7,-4,84,72,59,30.51,30.44,30.39,10,8,2,14,8,14,0.04,6,Snow,212
2014-1-9,31,20,9,29,17,5,92,78,63,30.61,30.49,30.32,10,6,0,8,4,8,0.08,6,Snow,151
2014-1-10,46,38,30,44,36,28,100,95,89,30.32,30.15,29.82,10,2,0,12,7,12,0.03,8,Fog-Snow,176
2014-1-11,51,42,33,50,42,29,93,85,76,29.76,29.56,29.37,10,8,4,29,17,29,0.55,8,Rain,225
2014-1-12,37,34,30,30,28,27,92,81,70,30.02,29.91,29.70,10,8,5,16,12,16,T,7,Snow,236
2014-1-13,49,42,35,43,34,29,96,75,54,29.91,29.79,29.69,10,9,6,21,15,21,0.08,6,Rain,199
2014-1-14,45,41,36,43,31,20,96,71,46,29.83,29.77,29.70,10,10,8,14,8,14,T,6,Rain,255
2014-1-15,39,32,25,30,17,12,71,61,50,30.04,29.95,29.77,10,10,7,21,12,21,T,8,Rain-Snow,255
2014-1-16,30,24,18,22,15,11,77,63,49,30.01,29.88,29.74,10,8,2,17,13,17,T,6,Snow,205
2014-1-17,37,26,14,28,23,6,85,75,64,29.99,29.82,29.73,10,8,0,17,11,17,0.01,6,Snow,222
2014-1-18,19,15,10,15,7,1,84,75,66,30.04,29.97,29.85,10,8,2,15,12,15,0.02,7,Snow,224
2014-1-19,31,24,17,22,17,14,92,74,56,29.83,29.76,29.68,10,7,2,23,15,23,T,6,Snow,226
2014-1-20,35,28,21,27,22,15,92,78,63,29.96,29.78,29.57,10,9,2,18,11,18,T,8,Snow,298
2014-1-21,21,12,3,14,4,-8,80,63,46,30.15,30.02,29.92,10,8,2,18,12,18,0.01,6,Snow,26
2014-1-22,12,6,-1,4,-2,-5,87,70,53,30.14,30.09,30.03,10,9,2,12,6,12,0.01,5,Snow,250
2014-1-23,12,8,3,7,2,-3,88,75,61,30.50,30.26,29.96,10,5,2,18,12,18,0.02,7,Snow,265
2014-1-24,14,6,-2,0,-3,-7,86,70,53,30.52,30.28,29.79,10,10,8,29,16,29,T,5,Snow,221
2014-1-25,29,20,10,24,14,1,92,71,49,29.79,29.54,29.30,10,2,0,29,19,29,0.35,7,Snow,260
2014-1-26,32,18,3,25,8,-4,92,76,60,29.84,29.69,29.50,10,7,1,23,14,23,0.05,6,Snow,212
2014-1-27,36,17,-2,30,8,-9,100,82,63,30.36,29.94,29.44,10,6,0,30,17,30,0.05,6,Snow,287
2014-1-28,7,-1,-10,-8,-13,-16,79,63,47,30.48,30.39,30.32,10,10,10,14,8,14,0.00,2,,226
2014-1-29,21,8,-6,2,-7,-16,72,58,43,30.33,30.28,30.17,10,10,10,20,11,22,0.00,0,,229
2014-1-30,31,20,9,9,1,-3,92,60,27,30.32,30.16,29.93,10,10,10,21,14,21,0.00,4,,200
2014-1-31,36,33,30,30,19,8,89,62,34,30.18,30.10,29.98,10,7,2,15,9,15,0.04,8,Snow,224